createdAt,value
2022-09-05T00:02:29.750Z,19.18
2022-09-05T00:05:06.828Z,19.30
2022-09-05T00:07:59.200Z,19.32
2022-09-05T00:10:37.466Z,19.47
2022-09-05T00:13:27.315Z,19.53
2022-09-05T00:16:10.203Z,19.35
2022-09-05T00:22:14.413Z,18.99
2022-09-05T00:24:31.148Z,18.96
2022-09-05T00:27:57.191Z,19.12
2022-09-05T00:31:07.859Z,19.08
2022-09-05T00:33:29.285Z,19.22
2022-09-05T00:36:19.676Z,18.98
2022-09-05T00:38:57.616Z,19.33
2022-09-05T00:41:28.604Z,19.28
2022-09-05T00:44:03.127Z,19.10
2022-09-05T00:46:35.156Z,19.10
2022-09-05T00:49:17.166Z,19.01
2022-09-05T00:51:55.072Z,19.06
2022-09-05T00:54:45.550Z,19.31
2022-09-05T00:57:49.312Z,19.27
2022-09-05T01:00:19.263Z,19.22
2022-09-05T01:03:12.714Z,19.21
2022-09-05T01:05:59.583Z,19.19
2022-09-05T01:08:47.934Z,19.23
2022-09-05T01:11:37.881Z,19.37
2022-09-05T01:14:17.859Z,19.40
2022-09-05T01:17:05.334Z,18.93
2022-09-05T01:19:47.302Z,18.94
2022-09-05T01:22:45.416Z,18.98
2022-09-05T01:25:28.226Z,19.10
2022-09-05T01:29:14.527Z,18.87
2022-09-05T01:30:53.588Z,19.30
2022-09-05T01:33:32.269Z,19.16
2022-09-05T01:36:19.112Z,19.16
2022-09-05T01:40:10.696Z,19.08
2022-09-05T01:41:54.441Z,18.73
2022-09-05T01:44:42.794Z,18.92
2022-09-05T01:47:36.833Z,19.13
2022-09-05T01:50:16.782Z,19.10
2022-09-05T01:53:06.031Z,18.80
2022-09-05T01:56:06.945Z,18.60
2022-09-05T01:58:50.488Z,18.52
2022-09-05T02:01:33.069Z,18.74
2022-09-05T02:04:26.051Z,18.91
2022-09-05T02:07:19.912Z,18.70
2022-09-05T02:10:10.371Z,18.73
2022-09-05T02:12:44.973Z,18.87
2022-09-05T02:15:40.065Z,19.03
2022-09-05T02:18:15.506Z,18.88
2022-09-05T02:20:51.006Z,18.68
2022-09-05T02:23:41.658Z,18.84
2022-09-05T02:26:17.608Z,18.82
2022-09-05T02:28:53.809Z,18.52
2022-09-05T02:31:28.466Z,18.87
2022-09-05T02:34:02.348Z,18.87
2022-09-05T02:36:38.729Z,18.68
2022-09-05T02:45:07.010Z,18.60
2022-09-05T02:45:13.857Z,18.66
2022-09-05T02:45:25.460Z,18.37
2022-09-05T02:48:14.731Z,18.68
2022-09-05T02:54:27.800Z,18.66
2022-09-05T02:57:39.664Z,18.49
2022-09-05T02:57:45.601Z,18.99
2022-09-05T03:00:00.172Z,18.69
2022-09-05T03:02:36.787Z,18.64
2022-09-05T03:05:14.374Z,18.72
2022-09-05T03:08:12.514Z,18.42
2022-09-05T03:11:20.385Z,18.79
2022-09-05T03:14:32.683Z,18.50
2022-09-05T03:17:33.092Z,18.32
2022-09-05T03:20:27.640Z,18.29
2022-09-05T03:23:25.665Z,18.36
2022-09-05T03:26:49.146Z,17.78
2022-09-05T03:30:02.901Z,18.05
2022-09-05T03:33:19.236Z,17.63
2022-09-05T03:36:34.682Z,18.10
2022-09-05T03:39:35.211Z,17.77
2022-09-05T03:42:31.050Z,17.98
2022-09-05T03:45:26.933Z,17.70
2022-09-05T03:48:36.787Z,17.58
2022-09-05T03:57:06.538Z,17.44
2022-09-05T03:57:13.120Z,17.79
2022-09-05T03:57:44.454Z,17.47
2022-09-05T04:00:21.910Z,17.68
2022-09-05T04:08:09.703Z,17.58
2022-09-05T04:08:15.901Z,17.51
2022-09-05T04:08:48.714Z,17.55
2022-09-05T04:11:29.113Z,17.46
2022-09-05T04:14:02.839Z,17.50
2022-09-05T04:16:34.348Z,17.44
2022-09-05T04:19:19.147Z,17.29
2022-09-05T04:21:49.931Z,17.20
2022-09-05T04:24:29.746Z,17.35
2022-09-05T04:27:26.413Z,17.85
2022-09-05T04:30:01.431Z,17.59
2022-09-05T04:32:47.077Z,17.60
2022-09-05T04:35:30.734Z,17.58
2022-09-05T04:38:06.133Z,17.46
2022-09-05T04:40:41.240Z,17.66
2022-09-05T04:43:16.784Z,17.31
2022-09-05T04:45:49.079Z,17.34
2022-09-05T04:48:25.660Z,17.04
2022-09-05T04:51:07.218Z,17.19
2022-09-05T04:53:56.752Z,16.92
2022-09-05T04:56:29.660Z,17.38
2022-09-05T05:00:47.105Z,17.09
2022-09-05T05:06:05.028Z,17.21
2022-09-05T05:06:17.746Z,17.35
2022-09-05T05:07:42.044Z,17.46
2022-09-05T05:11:47.900Z,17.19
2022-09-05T05:17:57.452Z,17.05
2022-09-05T05:18:13.758Z,16.83
2022-09-05T05:19:18.926Z,17.37
2022-09-05T05:21:52.136Z,17.51
2022-09-05T05:24:23.353Z,17.24
2022-09-05T05:26:59.759Z,16.96
2022-09-05T05:29:39.723Z,17.31
2022-09-05T05:32:09.285Z,17.09
2022-09-05T05:34:44.006Z,17.41
2022-09-05T05:37:19.729Z,17.12
2022-09-05T05:39:59.458Z,17.04
2022-09-05T05:42:27.499Z,17.48
2022-09-05T05:44:58.757Z,17.45
2022-09-05T05:47:32.825Z,17.44
2022-09-05T05:50:03.933Z,17.79
2022-09-05T05:53:02.455Z,17.61
2022-09-05T05:55:58.057Z,17.16
2022-09-05T05:58:39.112Z,17.23
2022-09-05T06:01:43.588Z,17.23
2022-09-05T06:04:54.089Z,17.38
2022-09-05T06:07:48.313Z,17.54
2022-09-05T06:14:51.767Z,17.70
2022-09-05T06:15:04.443Z,17.49
2022-09-05T06:17:27.981Z,17.98
2022-09-05T06:22:06.198Z,18.04
2022-09-05T06:23:57.202Z,17.55
2022-09-05T06:27:02.337Z,18.22
2022-09-05T06:29:46.931Z,18.15
2022-09-05T06:32:31.480Z,18.39
2022-09-05T06:35:26.163Z,18.89
2022-09-05T06:38:07.679Z,18.31
2022-09-05T06:40:41.395Z,19.06
2022-09-05T06:43:26.859Z,18.77
2022-09-05T06:46:22.704Z,18.72
2022-09-05T06:49:30.500Z,18.87
2022-09-05T06:52:30.157Z,19.28
2022-09-05T06:55:35.414Z,19.68
2022-09-05T06:58:42.514Z,19.58
2022-09-05T07:01:12.164Z,18.83
2022-09-05T07:03:57.856Z,18.94
2022-09-05T07:07:02.349Z,19.26
2022-09-05T07:09:48.991Z,19.50
2022-09-05T07:12:23.616Z,18.95
2022-09-05T07:15:08.791Z,19.46
2022-09-05T07:18:09.131Z,19.73
2022-09-05T07:21:17.062Z,19.83
2022-09-05T07:24:06.332Z,19.66
2022-09-05T07:26:52.202Z,20.19
2022-09-05T07:29:29.678Z,19.87
2022-09-05T07:32:00.583Z,19.93
2022-09-05T07:34:31.416Z,19.78
2022-09-05T07:37:15.731Z,19.79
2022-09-05T07:39:49.641Z,19.75
2022-09-05T07:42:24.437Z,20.20
2022-09-05T07:44:57.848Z,20.60
2022-09-05T07:47:30.105Z,20.33
2022-09-05T07:51:48.545Z,20.30
2022-09-05T07:56:55.883Z,20.75
2022-09-05T07:57:08.676Z,20.30
2022-09-05T07:58:41.800Z,20.69
2022-09-05T08:01:13.913Z,21.17
2022-09-05T08:03:44.179Z,20.89
2022-09-05T08:06:35.935Z,21.29
2022-09-05T08:10:06.620Z,21.38
2022-09-05T08:12:09.683Z,21.55
2022-09-05T08:14:48.488Z,21.34
2022-09-05T08:17:20.715Z,21.82
2022-09-05T08:20:10.533Z,21.36
2022-09-05T08:22:52.213Z,22.05
2022-09-05T08:25:27.605Z,21.90
2022-09-05T08:28:16.567Z,21.91
2022-09-05T08:30:48.392Z,21.68
2022-09-05T08:33:24.683Z,21.51
2022-09-05T08:35:59.281Z,22.24
2022-09-05T08:38:33.902Z,21.98
2022-09-05T08:41:16.609Z,21.30
2022-09-05T08:46:35.742Z,21.33
2022-09-05T08:46:50.614Z,21.69
2022-09-05T08:50:01.291Z,21.80
2022-09-05T08:52:44.026Z,21.41
2022-09-05T08:55:20.008Z,21.24
2022-09-05T08:58:23.813Z,21.55
2022-09-05T09:01:00.180Z,21.94
2022-09-05T09:03:35.823Z,22.76
2022-09-05T09:06:37.781Z,23.30
2022-09-05T09:09:14.713Z,22.75
2022-09-05T09:11:51.271Z,23.03
2022-09-05T09:14:36.543Z,23.26
2022-09-05T09:17:22.791Z,23.50
2022-09-05T09:20:06.203Z,23.37
2022-09-05T09:22:41.839Z,23.97
2022-09-05T09:25:15.073Z,24.61
2022-09-05T09:28:48.431Z,24.72
2022-09-05T09:30:57.463Z,24.40
2022-09-05T09:33:37.360Z,23.99
2022-09-05T09:36:19.366Z,25.42
2022-09-05T09:39:06.563Z,25.15
2022-09-05T09:42:32.832Z,25.44
2022-09-05T09:45:31.430Z,24.84
2022-09-05T09:48:22.901Z,24.48
2022-09-05T09:51:22.771Z,24.37
2022-09-05T09:54:18.786Z,25.74
2022-09-05T09:57:19.794Z,26.06
2022-09-05T10:00:06.154Z,25.84
2022-09-05T10:06:54.119Z,26.34
2022-09-05T10:10:43.805Z,26.94
2022-09-05T10:11:24.531Z,26.26
2022-09-05T10:12:33.059Z,26.03
2022-09-05T10:15:30.831Z,26.24
2022-09-05T10:18:26.782Z,26.08
2022-09-05T10:21:19.670Z,26.54
2022-09-05T10:27:14.589Z,26.64
2022-09-05T10:29:52.900Z,26.99
2022-09-05T10:35:07.670Z,27.24
2022-09-05T10:35:23.545Z,27.39
2022-09-05T10:37:58.904Z,27.45
2022-09-05T10:40:28.930Z,27.96
2022-09-05T10:43:03.394Z,27.32
2022-09-05T10:45:44.784Z,27.92
2022-09-05T10:48:18.513Z,27.11
2022-09-05T10:50:53.986Z,27.76
2022-09-05T10:53:39.455Z,27.58
2022-09-05T10:56:13.312Z,28.26
2022-09-05T11:00:03.401Z,28.12
2022-09-05T11:02:27.155Z,28.43
2022-09-05T11:04:49.460Z,28.56
2022-09-05T11:07:29.560Z,28.23
2022-09-05T11:10:14.435Z,27.82
2022-09-05T11:12:58.708Z,27.91
2022-09-05T11:15:35.157Z,27.83
2022-09-05T11:18:07.023Z,28.78
2022-09-05T11:20:55.257Z,26.98
2022-09-05T11:23:29.734Z,28.00
2022-09-05T11:26:04.442Z,28.93
2022-09-05T11:28:59.832Z,29.00
2022-09-05T11:31:45.752Z,28.79
2022-09-05T11:39:46.643Z,30.04
2022-09-05T11:40:04.115Z,29.54
2022-09-05T11:41:42.252Z,29.69
2022-09-05T11:44:30.124Z,28.97
2022-09-05T11:47:33.154Z,27.77
2022-09-05T11:50:43.048Z,28.19
2022-09-05T11:53:45.612Z,27.28
2022-09-05T11:56:46.885Z,27.99
2022-09-05T12:00:31.487Z,27.60
2022-09-05T12:03:07.123Z,28.56
2022-09-05T12:05:59.692Z,27.70
2022-09-05T12:08:36.383Z,27.69
2022-09-05T12:11:18.525Z,27.40
2022-09-05T12:13:51.283Z,27.92
2022-09-05T12:16:26.784Z,29.02
2022-09-05T12:19:19.739Z,29.11
2022-09-05T12:22:09.652Z,29.08
2022-09-05T12:25:24.517Z,29.76
2022-09-05T12:27:59.900Z,31.40
2022-09-05T12:35:59.502Z,28.31
2022-09-05T12:40:43.637Z,29.09
2022-09-05T12:40:55.541Z,29.14
2022-09-05T12:41:41.972Z,27.45
2022-09-05T12:42:33.070Z,29.69
2022-09-05T12:45:16.477Z,29.27
2022-09-05T12:47:57.980Z,29.15
2022-09-05T12:50:39.525Z,29.55
2022-09-05T12:53:12.357Z,28.61
2022-09-05T12:55:47.079Z,27.01
2022-09-05T13:02:59.072Z,28.66
2022-09-05T13:03:05.723Z,28.71
2022-09-05T13:04:29.969Z,29.52
2022-09-05T13:07:02.262Z,30.08
2022-09-05T13:12:07.461Z,28.98
2022-09-05T13:14:56.314Z,28.73
2022-09-05T13:15:26.999Z,29.48
2022-09-05T13:18:07.372Z,29.99
2022-09-05T13:20:39.358Z,30.11
2022-09-05T13:23:18.749Z,29.08
2022-09-05T13:25:58.433Z,28.25
2022-09-05T13:28:30.329Z,27.05
2022-09-05T13:37:53.716Z,27.88
2022-09-05T13:38:10.673Z,28.91
2022-09-05T13:38:13.925Z,28.21
2022-09-05T13:39:47.603Z,28.72
2022-09-05T13:42:20.751Z,27.98
2022-09-05T13:44:53.786Z,29.11
2022-09-05T13:47:46.548Z,29.37
2022-09-05T13:50:23.383Z,29.10
2022-09-05T13:52:57.037Z,29.41
2022-09-05T13:55:37.985Z,30.27
2022-09-05T13:58:12.650Z,29.56
2022-09-05T14:01:21.657Z,28.27
2022-09-05T14:07:49.728Z,28.36
2022-09-05T14:10:56.044Z,27.90
2022-09-05T14:13:28.193Z,28.01
2022-09-05T14:15:59.941Z,28.42
2022-09-05T14:18:30.130Z,27.21
2022-09-05T14:21:17.845Z,27.10
2022-09-05T14:23:53.748Z,26.60
2022-09-05T14:26:27.987Z,26.56
2022-09-05T14:29:05.123Z,26.93
2022-09-05T14:37:35.439Z,26.98
2022-09-05T14:38:01.446Z,26.94
2022-09-05T14:38:04.166Z,27.68
2022-09-05T14:41:02.958Z,26.92
2022-09-05T14:43:56.139Z,26.89
2022-09-05T14:46:54.870Z,26.35
2022-09-05T14:49:40.540Z,26.34
2022-09-05T14:52:23.610Z,25.82
2022-09-05T15:02:42.723Z,26.87
2022-09-05T15:02:48.796Z,26.64
2022-09-05T15:06:32.781Z,26.68
2022-09-05T15:12:19.619Z,27.46
2022-09-05T15:12:20.000Z,26.88
2022-09-05T15:14:42.211Z,26.59
2022-09-05T15:17:10.060Z,26.26
2022-09-05T15:20:06.656Z,25.82
2022-09-05T15:22:36.938Z,25.68
2022-09-05T15:25:18.623Z,25.58
2022-09-05T15:27:47.491Z,25.36
2022-09-05T15:30:21.678Z,25.45
2022-09-05T15:33:13.845Z,24.67
2022-09-05T15:35:45.076Z,25.10
2022-09-05T15:38:28.148Z,25.40
2022-09-05T15:41:20.524Z,25.20
2022-09-05T15:43:52.755Z,25.03
2022-09-05T15:46:30.884Z,24.71
2022-09-05T15:49:05.392Z,24.87
2022-09-05T15:51:42.936Z,24.61
2022-09-05T15:54:14.112Z,24.25
2022-09-05T15:56:57.832Z,24.19
2022-09-05T15:59:30.332Z,23.97
2022-09-05T16:02:00.881Z,24.25
2022-09-05T16:10:27.037Z,23.62
2022-09-05T16:10:36.109Z,23.81
2022-09-05T16:10:41.286Z,23.79
2022-09-05T16:13:13.397Z,23.89
2022-09-05T16:18:42.766Z,23.55
2022-09-05T16:20:36.666Z,24.17
2022-09-05T16:23:33.825Z,24.09
2022-09-05T16:24:58.182Z,24.26
2022-09-05T16:27:15.823Z,24.04
2022-09-05T16:29:46.373Z,24.12
2022-09-05T16:32:22.812Z,24.13
2022-09-05T16:34:55.366Z,23.65
2022-09-05T16:37:29.436Z,23.77
2022-09-05T16:40:06.553Z,23.12
2022-09-05T16:42:46.962Z,23.06
2022-09-05T16:45:23.904Z,22.85
2022-09-05T16:48:00.942Z,22.79
2022-09-05T16:50:34.823Z,22.96
2022-09-05T16:53:30.212Z,23.27
2022-09-05T16:56:04.965Z,23.81
2022-09-05T16:58:37.691Z,22.93
2022-09-05T17:01:24.795Z,22.91
2022-09-05T17:03:57.203Z,22.97
2022-09-05T17:06:35.390Z,22.78
2022-09-05T17:09:12.785Z,22.74
2022-09-05T17:11:54.579Z,22.50
2022-09-05T17:14:34.895Z,22.73
2022-09-05T17:17:36.620Z,21.98
2022-09-05T17:20:06.980Z,21.86
2022-09-05T17:24:45.188Z,21.69
2022-09-05T17:29:28.582Z,21.29
2022-09-05T17:29:45.583Z,21.22
2022-09-05T17:31:56.844Z,21.22
2022-09-05T17:35:17.653Z,20.52
2022-09-05T17:38:15.821Z,20.68
2022-09-05T17:41:22.927Z,20.70
2022-09-05T17:43:58.897Z,20.22
2022-09-05T17:46:29.853Z,20.48
2022-09-05T17:49:17.694Z,20.13
2022-09-05T17:52:18.280Z,20.24
2022-09-05T17:54:49.586Z,20.14
2022-09-05T17:57:41.294Z,20.06
2022-09-05T18:01:00.256Z,19.95
2022-09-05T18:04:17.625Z,19.81
2022-09-05T18:07:00.454Z,19.62
2022-09-05T18:10:11.876Z,20.05
2022-09-05T18:16:03.765Z,19.84
2022-09-05T18:21:25.722Z,19.85
2022-09-05T18:24:05.031Z,19.72
2022-09-05T18:26:41.738Z,19.85
2022-09-05T18:29:37.171Z,19.63
2022-09-05T18:32:14.945Z,19.46
2022-09-05T18:34:47.925Z,19.49
2022-09-05T18:37:52.769Z,19.35
2022-09-05T18:40:44.461Z,19.41
2022-09-05T18:43:24.291Z,19.28
2022-09-05T18:45:55.096Z,19.05
2022-09-05T18:48:29.887Z,19.08
2022-09-05T18:51:15.622Z,19.05
2022-09-05T18:53:47.506Z,19.27
2022-09-05T18:56:27.358Z,19.21
2022-09-05T18:59:09.855Z,19.12
2022-09-05T19:01:43.644Z,19.24
2022-09-05T19:04:38.974Z,19.03
2022-09-05T19:07:09.958Z,18.74
2022-09-05T19:09:40.021Z,18.83
2022-09-05T19:12:33.923Z,19.10
2022-09-05T19:15:08.190Z,18.83
2022-09-05T19:17:45.373Z,18.88
2022-09-05T19:20:31.824Z,18.95
2022-09-05T19:23:11.868Z,19.18
2022-09-05T19:25:43.476Z,18.99
2022-09-05T19:35:25.737Z,18.90
2022-09-05T19:36:54.257Z,18.88
2022-09-05T19:37:02.462Z,18.79
2022-09-05T19:37:30.415Z,19.08
2022-09-05T19:44:28.239Z,18.92
2022-09-05T19:47:36.323Z,18.42
2022-09-05T19:47:48.106Z,18.75
2022-09-05T19:48:25.868Z,18.58
2022-09-05T19:50:55.921Z,18.77
2022-09-05T19:53:24.751Z,18.67
2022-09-05T19:55:53.714Z,18.85
2022-09-05T19:58:23.277Z,18.70
2022-09-05T20:01:04.943Z,18.91
2022-09-05T20:03:39.322Z,18.80
2022-09-05T20:06:29.204Z,18.98
2022-09-05T20:09:10.199Z,18.73
2022-09-05T20:11:45.876Z,18.96
2022-09-05T20:14:20.853Z,18.80
2022-09-05T20:16:50.634Z,18.73
2022-09-05T20:19:29.307Z,18.70
2022-09-05T20:22:38.733Z,18.41
2022-09-05T20:24:49.243Z,18.51
2022-09-05T20:27:17.800Z,18.26
2022-09-05T20:29:55.780Z,18.26
2022-09-05T20:32:39.965Z,18.14
2022-09-05T20:41:01.279Z,18.26
2022-09-05T20:43:15.405Z,17.95
2022-09-05T20:43:28.033Z,17.95
2022-09-05T20:44:17.403Z,18.23
2022-09-05T20:52:47.503Z,18.33
2022-09-05T20:54:14.522Z,18.04
2022-09-05T20:54:20.951Z,18.21
2022-09-05T20:55:38.697Z,17.91
2022-09-05T20:58:10.854Z,18.13
2022-09-05T21:00:45.174Z,18.13
2022-09-05T21:03:34.685Z,18.22
2022-09-05T21:06:12.871Z,18.29
2022-09-05T21:08:40.901Z,18.20
2022-09-05T21:11:10.509Z,17.77
2022-09-05T21:13:52.462Z,17.97
2022-09-05T21:16:23.195Z,17.94
2022-09-05T21:18:52.732Z,18.07
2022-09-05T21:21:28.825Z,17.96
2022-09-05T21:24:16.033Z,17.86
2022-09-05T21:26:44.997Z,18.13
2022-09-05T21:29:16.615Z,18.04
2022-09-05T21:31:47.161Z,18.19
2022-09-05T21:34:25.749Z,17.76
2022-09-05T21:37:06.411Z,17.87
2022-09-05T21:39:40.082Z,17.87
2022-09-05T21:42:44.263Z,17.97
2022-09-05T21:47:40.764Z,18.07
2022-09-05T21:47:53.321Z,17.98
2022-09-05T21:50:31.366Z,17.82
2022-09-05T21:56:29.693Z,17.99
2022-09-05T21:59:16.403Z,17.71
2022-09-05T21:59:32.838Z,17.82
2022-09-05T22:01:51.151Z,17.71
2022-09-05T22:04:21.917Z,18.06
2022-09-05T22:06:50.865Z,17.94
2022-09-05T22:09:21.471Z,17.66
2022-09-05T22:11:51.507Z,17.75
2022-09-05T22:14:19.643Z,18.18
2022-09-05T22:16:48.438Z,17.99
2022-09-05T22:19:22.701Z,17.63
2022-09-05T22:21:52.833Z,17.65
2022-09-05T22:24:23.853Z,17.31
2022-09-05T22:27:11.124Z,17.50
2022-09-05T22:29:40.897Z,17.82
2022-09-05T22:32:08.905Z,17.80
2022-09-05T22:34:36.720Z,17.84
2022-09-05T22:37:04.586Z,17.40
2022-09-05T22:39:37.088Z,17.61
2022-09-05T22:42:10.418Z,18.02
2022-09-05T22:44:40.551Z,17.53
2022-09-05T22:47:09.531Z,17.52
2022-09-05T22:49:38.156Z,17.70
2022-09-05T22:52:07.241Z,17.67
2022-09-05T22:54:37.192Z,17.60
2022-09-05T22:57:05.784Z,17.81
2022-09-05T22:59:33.598Z,17.38
2022-09-05T23:02:01.454Z,17.50
2022-09-05T23:04:29.486Z,17.81
2022-09-05T23:06:57.340Z,17.74
2022-09-05T23:09:25.228Z,17.43
2022-09-05T23:11:54.368Z,17.88
2022-09-05T23:14:22.166Z,17.65
2022-09-05T23:16:49.964Z,17.68
2022-09-05T23:19:17.760Z,17.28
2022-09-05T23:21:45.521Z,17.57
2022-09-05T23:24:14.065Z,18.05
2022-09-05T23:26:41.866Z,17.67
2022-09-05T23:29:11.006Z,17.77
2022-09-05T23:31:38.885Z,17.46
2022-09-05T23:34:06.751Z,17.55
2022-09-05T23:36:34.555Z,17.46
2022-09-05T23:39:02.470Z,17.54
2022-09-05T23:41:30.227Z,17.42
2022-09-05T23:43:58.139Z,17.06
2022-09-05T23:46:27.387Z,17.58
2022-09-05T23:48:55.261Z,17.25
2022-09-05T23:51:23.029Z,17.29
2022-09-05T23:53:50.810Z,17.20
2022-09-05T23:56:18.547Z,17.22
2022-09-05T23:58:46.316Z,17.10
